PWSweather.com
Personal Weather Stations
Station Observations
INORDPAS37
Bondues, BonduesFR 59910

BonduesBonduesFR 59910

Lat: 50.7, Lon: 3.09

Elevation: 102

Station Type: Netatmo

http://bondues.meteoamikuze.com

High Low Average
Temperature 57.4°F14.1°C 40.3°F4.6°C 48.8°F9.3°C
Dew Point 38.8°F3.8°C 28.4°F-2.0°C 34.4°F1.3°C
Winds 4.9 mph 7.9 kmh 0.7 mph 1.1 kmh 3.0 mph WSW4.8 kmh WSW
Wind Gusts 11.9 mph19.2 kmh 1.3 mph2.1 kmh 7.0 mph11.3 kmh
Humidity 75% 52% 62%
Pressure 29.93 in1013.5 mb 29.77 in1008.1 mb -
Precipitation 0.02 in0.5 mm - -
Hour Temp Dew Point Humidity Winds Wind Gusts Pressure Precip Precip Rate Daily Precip Total
12:15 AM 41.4°F5.2°C 32.2°F0.1°C 75% 4.3 mph W6.9 kmh W 13.0 mph20.9 kmh 29.77 in1008.1 mb 0.01 in0.3 mm 0.05 in1.3 mm 0.01 in0.3 mm
12:35 AM 41.4°F5.2°C 32.2°F0.1°C 75% 4.3 mph W6.9 kmh W 9.4 mph15.1 kmh 29.78 in1008.5 mb 0.01 in0.3 mm 0.00 in0.0 mm 0.02 in0.5 mm
12:55 AM 41.4°F5.2°C 32.5°F0.3°C 76% 4.9 mph W7.9 kmh W 10.5 mph16.9 kmh 29.77 in1008.1 mb 0.01 in0.3 mm 0.00 in0.0 mm 0.02 in0.5 mm
01:15 AM 41.2°F5.1°C 32.0°F0.0°C 75% 2.5 mph WSW4.0 kmh WSW 6.9 mph11.1 kmh 29.77 in1008.1 mb 0.00 in0.0 mm 0.00 in0.0 mm 0.02 in0.5 mm
01:29 AM 41.4°F5.2°C 32.2°F0.1°C 75% 4.3 mph WSW6.9 kmh WSW 9.4 mph15.1 kmh 29.78 in1008.5 mb 0.00 in0.0 mm 0.00 in0.0 mm 0.02 in0.5 mm
01:55 AM 41.4°F5.2°C 32.2°F0.1°C 75% 4.9 mph WSW7.9 kmh WSW 10.5 mph16.9 kmh 29.78 in1008.5 mb 0.00 in0.0 mm 0.00 in0.0 mm 0.02 in0.5 mm
02:15 AM 41.4°F5.2°C 32.2°F0.1°C 75% 4.3 mph WSW6.9 kmh WSW 11.2 mph18.0 kmh 29.78 in1008.5 mb 0.00 in0.0 mm 0.00 in0.0 mm 0.02 in0.5 mm
02:35 AM 41.4°F5.2°C 32.2°F0.1°C 75% 3.1 mph WSW5.0 kmh WSW 8.7 mph14.0 kmh 29.78 in1008.5 mb 0.00 in0.0 mm 0.00 in0.0 mm 0.02 in0.5 mm
02:55 AM 41.5°F5.3°C 32.4°F0.2°C 75% 3.1 mph WSW5.0 kmh WSW 8.7 mph14.0 kmh 29.78 in1008.5 mb 0.00 in0.0 mm 0.00 in0.0 mm 0.02 in0.5 mm
03:15 AM 41.5°F5.3°C 32.0°F0.0°C 74% 4.3 mph WSW6.9 kmh WSW 8.1 mph13.0 kmh 29.79 in1008.8 mb 0.00 in0.0 mm 0.00 in0.0 mm 0.02 in0.5 mm
03:35 AM 41.4°F5.2°C 31.8°F-0.1°C 74% 3.8 mph W6.1 kmh W 9.8 mph15.8 kmh 29.79 in1008.8 mb 0.00 in0.0 mm 0.00 in0.0 mm 0.02 in0.5 mm
03:55 AM 41.4°F5.2°C 31.8°F-0.1°C 74% 3.1 mph WSW5.0 kmh WSW 6.9 mph11.1 kmh 29.80 in1009.1 mb 0.00 in0.0 mm 0.00 in0.0 mm 0.02 in0.5 mm
04:15 AM 41.4°F5.2°C 31.8°F-0.1°C 74% 3.1 mph WSW5.0 kmh WSW 8.1 mph13.0 kmh 29.80 in1009.1 mb 0.00 in0.0 mm 0.00 in0.0 mm 0.02 in0.5 mm
04:35 AM 41.5°F5.3°C 31.6°F-0.2°C 73% 3.1 mph WSW5.0 kmh WSW 7.4 mph11.9 kmh 29.80 in1009.1 mb 0.00 in0.0 mm 0.00 in0.0 mm 0.02 in0.5 mm
04:55 AM 41.2°F5.1°C 31.3°F-0.4°C 73% 3.1 mph SW5.0 kmh SW 5.6 mph9.0 kmh 29.80 in1009.1 mb 0.00 in0.0 mm 0.00 in0.0 mm 0.02 in0.5 mm
05:15 AM 40.6°F4.8°C 30.7°F-0.7°C 73% 3.1 mph SW5.0 kmh SW 6.9 mph11.1 kmh 29.81 in1009.5 mb 0.00 in0.0 mm 0.00 in0.0 mm 0.02 in0.5 mm
05:21 AM 40.3°F4.6°C 30.4°F-0.9°C 73% 3.1 mph SW5.0 kmh SW 5.6 mph9.0 kmh 29.81 in1009.5 mb 0.00 in0.0 mm 0.00 in0.0 mm 0.02 in0.5 mm
05:41 AM 40.3°F4.6°C 30.4°F-0.9°C 73% 2.5 mph SW4.0 kmh SW 4.9 mph7.9 kmh 29.82 in1009.8 mb 0.00 in0.0 mm 0.00 in0.0 mm 0.02 in0.5 mm
06:01 AM 40.6°F4.8°C 30.7°F-0.7°C 73% 3.1 mph SW5.0 kmh SW 6.9 mph11.1 kmh 29.82 in1009.8 mb 0.00 in0.0 mm 0.00 in0.0 mm 0.02 in0.5 mm
06:21 AM 41.2°F5.1°C 31.3°F-0.4°C 73% 3.8 mph SW6.1 kmh SW 7.4 mph11.9 kmh 29.83 in1010.2 mb 0.00 in0.0 mm 0.00 in0.0 mm 0.02 in0.5 mm
06:41 AM 41.9°F5.5°C 32.0°F0.0°C 73% 3.8 mph SW6.1 kmh SW 6.9 mph11.1 kmh 29.84 in1010.5 mb 0.00 in0.0 mm 0.00 in0.0 mm 0.02 in0.5 mm
07:02 AM 43.3°F6.3°C 33.3°F0.7°C 73% 3.1 mph SW5.0 kmh SW 6.9 mph11.1 kmh 29.85 in1010.8 mb 0.00 in0.0 mm 0.00 in0.0 mm 0.02 in0.5 mm
07:21 AM 44.6°F7.0°C 34.5°F1.4°C 73% 3.1 mph SW5.0 kmh SW 6.9 mph11.1 kmh 29.85 in1010.8 mb 0.00 in0.0 mm 0.00 in0.0 mm 0.02 in0.5 mm
07:42 AM 46.6°F8.1°C 36.5°F2.5°C 73% 3.1 mph WSW5.0 kmh WSW 8.1 mph13.0 kmh 29.86 in1011.2 mb 0.00 in0.0 mm 0.00 in0.0 mm 0.02 in0.5 mm
08:02 AM 47.8°F8.8°C 37.6°F3.1°C 73% 3.8 mph WSW6.1 kmh WSW 9.4 mph15.1 kmh 29.86 in1011.2 mb 0.00 in0.0 mm 0.00 in0.0 mm 0.02 in0.5 mm
08:22 AM 48.9°F9.4°C 38.3°F3.5°C 72% 2.5 mph W4.0 kmh W 5.6 mph9.0 kmh 29.87 in1011.5 mb 0.00 in0.0 mm 0.00 in0.0 mm 0.02 in0.5 mm
08:43 AM 49.3°F9.6°C 38.3°F3.5°C 71% 3.8 mph WSW6.1 kmh WSW 8.1 mph13.0 kmh 29.87 in1011.5 mb 0.00 in0.0 mm 0.00 in0.0 mm 0.02 in0.5 mm
09:07 AM 49.6°F9.8°C 37.8°F3.2°C 69% 3.1 mph W5.0 kmh W 6.9 mph11.1 kmh 29.87 in1011.5 mb 0.00 in0.0 mm 0.00 in0.0 mm 0.02 in0.5 mm
09:28 AM 50.7°F10.4°C 37.8°F3.2°C 66% 4.9 mph W7.9 kmh W 9.8 mph15.8 kmh 29.88 in1011.9 mb 0.00 in0.0 mm 0.00 in0.0 mm 0.02 in0.5 mm
09:48 AM 51.4°F10.8°C 37.9°F3.3°C 65% 3.1 mph WSW5.0 kmh WSW 8.7 mph14.0 kmh 29.89 in1012.2 mb 0.00 in0.0 mm 0.00 in0.0 mm 0.02 in0.5 mm
10:08 AM 51.6°F10.9°C 36.7°F2.6°C 61% 4.3 mph W6.9 kmh W 9.4 mph15.1 kmh 29.90 in1012.5 mb 0.00 in0.0 mm 0.00 in0.0 mm 0.02 in0.5 mm
10:28 AM 51.4°F10.8°C 36.5°F2.5°C 61% 3.8 mph W6.1 kmh W 9.8 mph15.8 kmh 29.90 in1012.5 mb 0.00 in0.0 mm 0.00 in0.0 mm 0.02 in0.5 mm
10:49 AM 52.3°F11.3°C 36.9°F2.7°C 60% 4.3 mph W6.9 kmh W 10.5 mph16.9 kmh 29.90 in1012.5 mb 0.00 in0.0 mm 0.00 in0.0 mm 0.02 in0.5 mm
11:15 AM 52.5°F11.4°C 36.3°F2.4°C 58% 2.5 mph W4.0 kmh W 8.7 mph14.0 kmh 29.91 in1012.9 mb 0.00 in0.0 mm 0.00 in0.0 mm 0.02 in0.5 mm
11:35 AM 53.4°F11.9°C 37.2°F2.9°C 58% 3.8 mph W6.1 kmh W 8.7 mph14.0 kmh 29.90 in1012.5 mb 0.00 in0.0 mm 0.00 in0.0 mm 0.02 in0.5 mm
11:55 AM 54.0°F12.2°C 38.1°F3.4°C 59% 4.3 mph WSW6.9 kmh WSW 9.4 mph15.1 kmh 29.91 in1012.9 mb 0.00 in0.0 mm 0.00 in0.0 mm 0.02 in0.5 mm
12:15 PM 54.7°F12.6°C 38.3°F3.5°C 58% 3.1 mph W5.0 kmh W 8.7 mph14.0 kmh 29.91 in1012.9 mb 0.00 in0.0 mm 0.00 in0.0 mm 0.02 in0.5 mm
12:35 PM 55.6°F13.1°C 38.8°F3.8°C 57% 3.1 mph WSW5.0 kmh WSW 8.1 mph13.0 kmh 29.91 in1012.9 mb 0.00 in0.0 mm 0.00 in0.0 mm 0.02 in0.5 mm
12:55 PM 55.9°F13.3°C 38.3°F3.5°C 55% 3.1 mph WSW5.0 kmh WSW 7.4 mph11.9 kmh 29.91 in1012.9 mb 0.00 in0.0 mm 0.00 in0.0 mm 0.02 in0.5 mm
01:01 PM 55.4°F13.0°C 37.8°F3.2°C 55% 3.1 mph W5.0 kmh W 8.7 mph14.0 kmh 29.91 in1012.9 mb 0.00 in0.0 mm 0.00 in0.0 mm 0.02 in0.5 mm
01:35 PM 55.2°F12.9°C 37.2°F2.9°C 54% 4.3 mph SW6.9 kmh SW 9.8 mph15.8 kmh 29.91 in1012.9 mb 0.00 in0.0 mm 0.00 in0.0 mm 0.02 in0.5 mm
01:41 PM 55.6°F13.1°C 37.6°F3.1°C 54% 4.3 mph WSW6.9 kmh WSW 11.9 mph19.2 kmh 29.91 in1012.9 mb 0.00 in0.0 mm 0.00 in0.0 mm 0.02 in0.5 mm
02:06 PM 55.9°F13.3°C 37.6°F3.1°C 53% 3.1 mph W5.0 kmh W 6.9 mph11.1 kmh 29.91 in1012.9 mb 0.00 in0.0 mm 0.00 in0.0 mm 0.02 in0.5 mm
02:26 PM 55.9°F13.3°C 37.6°F3.1°C 53% 2.5 mph WSW4.0 kmh WSW 6.9 mph11.1 kmh 29.91 in1012.9 mb 0.00 in0.0 mm 0.00 in0.0 mm 0.02 in0.5 mm
02:47 PM 55.8°F13.2°C 37.4°F3.0°C 53% 4.9 mph WSW7.9 kmh WSW 11.2 mph18.0 kmh 29.91 in1012.9 mb 0.00 in0.0 mm 0.00 in0.0 mm 0.02 in0.5 mm
03:06 PM 55.9°F13.3°C 37.9°F3.3°C 54% 3.8 mph SW6.1 kmh SW 9.8 mph15.8 kmh 29.91 in1012.9 mb 0.00 in0.0 mm 0.00 in0.0 mm 0.02 in0.5 mm
03:27 PM 56.5°F13.6°C 37.9°F3.3°C 53% 3.8 mph SW6.1 kmh SW 8.7 mph14.0 kmh 29.91 in1012.9 mb 0.00 in0.0 mm 0.00 in0.0 mm 0.02 in0.5 mm
03:47 PM 57.0°F13.9°C 38.5°F3.6°C 53% 2.5 mph SW4.0 kmh SW 5.6 mph9.0 kmh 29.91 in1012.9 mb 0.00 in0.0 mm 0.00 in0.0 mm 0.02 in0.5 mm
04:07 PM 55.9°F13.3°C 37.9°F3.3°C 54% 3.1 mph WSW5.0 kmh WSW 7.4 mph11.9 kmh 29.91 in1012.9 mb 0.00 in0.0 mm 0.00 in0.0 mm 0.02 in0.5 mm
04:27 PM 54.9°F12.7°C 36.9°F2.7°C 54% 2.5 mph WSW4.0 kmh WSW 4.9 mph7.9 kmh 29.91 in1012.9 mb 0.00 in0.0 mm 0.00 in0.0 mm 0.02 in0.5 mm
04:48 PM 54.5°F12.5°C 37.0°F2.8°C 55% 3.8 mph SW6.1 kmh SW 8.7 mph14.0 kmh 29.91 in1012.9 mb 0.00 in0.0 mm 0.00 in0.0 mm 0.02 in0.5 mm
05:07 PM 55.2°F12.9°C 37.6°F3.1°C 55% 3.1 mph WSW5.0 kmh WSW 9.4 mph15.1 kmh 29.91 in1012.9 mb 0.00 in0.0 mm 0.00 in0.0 mm 0.02 in0.5 mm
05:28 PM 57.4°F14.1°C 38.8°F3.8°C 53% 2.5 mph W4.0 kmh W 7.4 mph11.9 kmh 29.90 in1012.5 mb 0.00 in0.0 mm 0.00 in0.0 mm 0.02 in0.5 mm
05:48 PM 56.1°F13.4°C 37.8°F3.2°C 53% 4.3 mph SW6.9 kmh SW 9.8 mph15.8 kmh 29.90 in1012.5 mb 0.00 in0.0 mm 0.00 in0.0 mm 0.02 in0.5 mm
06:09 PM 54.9°F12.7°C 36.9°F2.7°C 54% 3.8 mph WSW6.1 kmh WSW 8.1 mph13.0 kmh 29.91 in1012.9 mb 0.00 in0.0 mm 0.00 in0.0 mm 0.02 in0.5 mm
06:29 PM 54.3°F12.4°C 35.6°F2.0°C 52% 3.1 mph W5.0 kmh W 9.8 mph15.8 kmh 29.90 in1012.5 mb 0.00 in0.0 mm 0.00 in0.0 mm 0.02 in0.5 mm
06:55 PM 54.1°F12.3°C 35.4°F1.9°C 52% 3.1 mph WSW5.0 kmh WSW 5.6 mph9.0 kmh 29.91 in1012.9 mb 0.00 in0.0 mm 0.00 in0.0 mm 0.02 in0.5 mm
07:15 PM 53.6°F12.0°C 34.9°F1.6°C 52% 3.1 mph WSW5.0 kmh WSW 8.7 mph14.0 kmh 29.90 in1012.5 mb 0.00 in0.0 mm 0.00 in0.0 mm 0.02 in0.5 mm
07:35 PM 52.9°F11.6°C 34.3°F1.3°C 52% 3.1 mph W5.0 kmh W 8.1 mph13.0 kmh 29.91 in1012.9 mb 0.00 in0.0 mm 0.00 in0.0 mm 0.02 in0.5 mm
07:55 PM 51.8°F11.0°C 33.6°F0.9°C 53% 2.5 mph W4.0 kmh W 6.9 mph11.1 kmh 29.92 in1013.2 mb 0.00 in0.0 mm 0.00 in0.0 mm 0.02 in0.5 mm
08:15 PM 50.9°F10.5°C 33.3°F0.7°C 54% 1.8 mph WSW2.9 kmh WSW 4.3 mph6.9 kmh 29.93 in1013.5 mb 0.00 in0.0 mm 0.00 in0.0 mm 0.02 in0.5 mm
08:35 PM 49.8°F9.9°C 32.2°F0.1°C 54% 1.3 mph SW2.1 kmh SW 3.1 mph5.0 kmh 29.93 in1013.5 mb 0.00 in0.0 mm 0.00 in0.0 mm 0.02 in0.5 mm
08:41 PM 48.7°F9.3°C 31.6°F-0.2°C 55% 0.7 mph SW1.1 kmh SW 1.8 mph2.9 kmh 29.92 in1013.2 mb 0.00 in0.0 mm 0.00 in0.0 mm 0.02 in0.5 mm
09:02 PM 47.5°F8.6°C 30.7°F-0.7°C 56% 1.3 mph SSW2.1 kmh SSW 2.5 mph4.0 kmh 29.93 in1013.5 mb 0.00 in0.0 mm 0.00 in0.0 mm 0.02 in0.5 mm
09:22 PM 46.4°F8.0°C 30.2°F-1.0°C 57% 0.7 mph S1.1 kmh S 1.8 mph2.9 kmh 29.93 in1013.5 mb 0.00 in0.0 mm 0.00 in0.0 mm 0.02 in0.5 mm
09:42 PM 45.7°F7.6°C 29.5°F-1.4°C 57% 0.7 mph S1.1 kmh S 1.3 mph2.1 kmh 29.93 in1013.5 mb 0.00 in0.0 mm 0.00 in0.0 mm 0.02 in0.5 mm
10:02 PM 45.1°F7.3°C 29.3°F-1.5°C 58% 0.7 mph S1.1 kmh S 1.8 mph2.9 kmh 29.92 in1013.2 mb 0.00 in0.0 mm 0.00 in0.0 mm 0.02 in0.5 mm
10:22 PM 44.8°F7.1°C 28.9°F-1.7°C 58% 1.3 mph S2.1 kmh S 2.5 mph4.0 kmh 29.92 in1013.2 mb 0.00 in0.0 mm 0.00 in0.0 mm 0.02 in0.5 mm
10:42 PM 44.4°F6.9°C 28.8°F-1.8°C 58% 1.3 mph S2.1 kmh S 2.5 mph4.0 kmh 29.92 in1013.2 mb 0.00 in0.0 mm 0.00 in0.0 mm 0.02 in0.5 mm
11:03 PM 44.2°F6.8°C 28.6°F-1.9°C 58% 1.3 mph SE2.1 kmh SE 2.5 mph4.0 kmh 29.91 in1012.9 mb 0.00 in0.0 mm 0.00 in0.0 mm 0.01 in0.3 mm
11:23 PM 44.1°F6.7°C 28.8°F-1.8°C 59% 1.3 mph SE2.1 kmh SE 4.3 mph6.9 kmh 29.92 in1013.2 mb 0.00 in0.0 mm 0.00 in0.0 mm 0.01 in0.3 mm
11:43 PM 43.7°F6.5°C 28.4°F-2.0°C 59% 1.3 mph SE2.1 kmh SE 3.1 mph5.0 kmh 29.91 in1012.9 mb 0.00 in0.0 mm 0.00 in0.0 mm 0.01 in0.3 mm